sensor_id;sensor_type;location;lat;lon;timestamp;temperature;humidity
4175;DHT22;2101;48.290;14.382;2024-03-17T00:02:09;8.40;99.90
4175;DHT22;2101;48.290;14.382;2024-03-17T00:04:34;8.40;99.90
4175;DHT22;2101;48.290;14.382;2024-03-17T00:07:00;8.40;99.90
4175;DHT22;2101;48.290;14.382;2024-03-17T00:09:26;8.40;99.90
4175;DHT22;2101;48.290;14.382;2024-03-17T00:11:52;8.40;99.90
4175;DHT22;2101;48.290;14.382;2024-03-17T00:14:17;8.30;99.90
4175;DHT22;2101;48.290;14.382;2024-03-17T00:16:44;8.30;99.90
4175;DHT22;2101;48.290;14.382;2024-03-17T00:19:10;8.20;99.90
4175;DHT22;2101;48.290;14.382;2024-03-17T00:21:36;8.20;99.90
4175;DHT22;2101;48.290;14.382;2024-03-17T00:24:01;8.10;99.90
4175;DHT22;2101;48.290;14.382;2024-03-17T00:26:28;8.10;99.90
4175;DHT22;2101;48.290;14.382;2024-03-17T00:28:55;8.10;99.90
4175;DHT22;2101;48.290;14.382;2024-03-17T00:31:21;8.00;99.90
4175;DHT22;2101;48.290;14.382;2024-03-17T00:33:46;8.00;99.90
4175;DHT22;2101;48.290;14.382;2024-03-17T00:36:13;8.00;99.90
4175;DHT22;2101;48.290;14.382;2024-03-17T00:38:40;8.00;99.90
4175;DHT22;2101;48.290;14.382;2024-03-17T00:41:06;7.90;99.90
4175;DHT22;2101;48.290;14.382;2024-03-17T00:43:32;7.90;99.90
4175;DHT22;2101;48.290;14.382;2024-03-17T00:45:57;7.90;99.90
4175;DHT22;2101;48.290;14.382;2024-03-17T00:48:24;7.80;99.90
4175;DHT22;2101;48.290;14.382;2024-03-17T00:50:57;7.90;99.90
4175;DHT22;2101;48.290;14.382;2024-03-17T00:53:22;7.80;99.90
4175;DHT22;2101;48.290;14.382;2024-03-17T00:55:55;7.80;99.90
4175;DHT22;2101;48.290;14.382;2024-03-17T00:58:24;7.80;99.90
4175;DHT22;2101;48.290;14.382;2024-03-17T01:00:50;7.80;99.90
4175;DHT22;2101;48.290;14.382;2024-03-17T01:03:16;7.80;99.90
4175;DHT22;2101;48.290;14.382;2024-03-17T01:05:42;7.70;99.90
4175;DHT22;2101;48.290;14.382;2024-03-17T01:08:16;7.70;99.90
4175;DHT22;2101;48.290;14.382;2024-03-17T01:10:44;7.70;99.90
4175;DHT22;2101;48.290;14.382;2024-03-17T01:13:10;7.70;99.90
4175;DHT22;2101;48.290;14.382;2024-03-17T01:15:37;7.70;99.90
4175;DHT22;2101;48.290;14.382;2024-03-17T01:18:06;7.70;99.90
4175;DHT22;2101;48.290;14.382;2024-03-17T01:20:34;7.70;99.90
4175;DHT22;2101;48.290;14.382;2024-03-17T01:23:00;7.60;99.90
4175;DHT22;2101;48.290;14.382;2024-03-17T01:25:26;7.60;99.90
4175;DHT22;2101;48.290;14.382;2024-03-17T01:27:53;7.60;99.90
4175;DHT22;2101;48.290;14.382;2024-03-17T01:30:19;7.60;99.90
4175;DHT22;2101;48.290;14.382;2024-03-17T01:32:45;7.50;99.90
4175;DHT22;2101;48.290;14.382;2024-03-17T01:35:11;7.50;99.90
4175;DHT22;2101;48.290;14.382;2024-03-17T01:37:38;7.50;99.90
4175;DHT22;2101;48.290;14.382;2024-03-17T01:40:04;7.50;99.90
4175;DHT22;2101;48.290;14.382;2024-03-17T01:42:33;7.50;99.90
4175;DHT22;2101;48.290;14.382;2024-03-17T01:44:59;7.50;99.90
4175;DHT22;2101;48.290;14.382;2024-03-17T01:47:25;7.50;99.90
4175;DHT22;2101;48.290;14.382;2024-03-17T01:49:51;7.50;99.90
4175;DHT22;2101;48.290;14.382;2024-03-17T01:52:19;7.60;99.90
4175;DHT22;2101;48.290;14.382;2024-03-17T01:54:46;7.60;99.90
4175;DHT22;2101;48.290;14.382;2024-03-17T01:57:13;7.60;99.90
4175;DHT22;2101;48.290;14.382;2024-03-17T01:59:39;7.60;99.90
4175;DHT22;2101;48.290;14.382;2024-03-17T02:02:06;7.60;99.90
4175;DHT22;2101;48.290;14.382;2024-03-17T02:04:31;7.60;99.90
4175;DHT22;2101;48.290;14.382;2024-03-17T02:06:57;7.50;99.90
4175;DHT22;2101;48.290;14.382;2024-03-17T02:09:23;7.50;99.90
4175;DHT22;2101;48.290;14.382;2024-03-17T02:11:49;7.50;99.90
4175;DHT22;2101;48.290;14.382;2024-03-17T02:14:15;7.50;99.90
4175;DHT22;2101;48.290;14.382;2024-03-17T02:16:43;7.50;99.90
4175;DHT22;2101;48.290;14.382;2024-03-17T02:19:09;7.40;99.90
4175;DHT22;2101;48.290;14.382;2024-03-17T02:21:35;7.40;99.90
4175;DHT22;2101;48.290;14.382;2024-03-17T02:24:03;7.40;99.90
4175;DHT22;2101;48.290;14.382;2024-03-17T02:26:28;7.30;99.90
4175;DHT22;2101;48.290;14.382;2024-03-17T02:28:54;7.30;99.90
4175;DHT22;2101;48.290;14.382;2024-03-17T02:31:20;7.30;99.90
4175;DHT22;2101;48.290;14.382;2024-03-17T02:33:47;7.30;99.90
4175;DHT22;2101;48.290;14.382;2024-03-17T02:36:13;7.30;99.90
4175;DHT22;2101;48.290;14.382;2024-03-17T02:38:41;7.20;99.90
4175;DHT22;2101;48.290;14.382;2024-03-17T02:41:26;7.20;99.90
4175;DHT22;2101;48.290;14.382;2024-03-17T02:43:52;7.20;99.90
4175;DHT22;2101;48.290;14.382;2024-03-17T02:46:18;7.20;99.90
4175;DHT22;2101;48.290;14.382;2024-03-17T02:48:47;7.10;99.90
4175;DHT22;2101;48.290;14.382;2024-03-17T02:51:18;7.10;99.90
4175;DHT22;2101;48.290;14.382;2024-03-17T02:53:46;7.00;99.90
4175;DHT22;2101;48.290;14.382;2024-03-17T02:56:13;6.90;99.90
4175;DHT22;2101;48.290;14.382;2024-03-17T02:58:40;6.90;99.90
4175;DHT22;2101;48.290;14.382;2024-03-17T03:01:07;6.90;99.90
4175;DHT22;2101;48.290;14.382;2024-03-17T03:03:33;6.90;99.90
4175;DHT22;2101;48.290;14.382;2024-03-17T03:05:59;6.90;99.90
4175;DHT22;2101;48.290;14.382;2024-03-17T03:08:35;6.80;99.90
4175;DHT22;2101;48.290;14.382;2024-03-17T03:11:07;6.90;99.90
4175;DHT22;2101;48.290;14.382;2024-03-17T03:13:40;6.90;99.90
4175;DHT22;2101;48.290;14.382;2024-03-17T03:16:07;6.90;99.90
4175;DHT22;2101;48.290;14.382;2024-03-17T03:18:36;6.90;99.90
4175;DHT22;2101;48.290;14.382;2024-03-17T03:21:02;6.90;99.90
4175;DHT22;2101;48.290;14.382;2024-03-17T03:23:28;7.00;99.90
4175;DHT22;2101;48.290;14.382;2024-03-17T03:26:01;6.90;99.90
4175;DHT22;2101;48.290;14.382;2024-03-17T03:28:33;6.90;99.90
4175;DHT22;2101;48.290;14.382;2024-03-17T03:30:59;6.90;99.90
4175;DHT22;2101;48.290;14.382;2024-03-17T03:33:25;6.90;99.90
4175;DHT22;2101;48.290;14.382;2024-03-17T03:35:51;6.90;99.90
4175;DHT22;2101;48.290;14.382;2024-03-17T03:38:17;6.90;99.90
4175;DHT22;2101;48.290;14.382;2024-03-17T03:40:44;6.80;99.90
4175;DHT22;2101;48.290;14.382;2024-03-17T03:43:10;6.80;99.90
4175;DHT22;2101;48.290;14.382;2024-03-17T03:45:39;6.80;99.90
4175;DHT22;2101;48.290;14.382;2024-03-17T03:48:06;6.80;99.90
4175;DHT22;2101;48.290;14.382;2024-03-17T03:50:34;6.80;99.90
4175;DHT22;2101;48.290;14.382;2024-03-17T03:53:00;6.80;99.90
4175;DHT22;2101;48.290;14.382;2024-03-17T03:55:25;6.80;99.90
4175;DHT22;2101;48.290;14.382;2024-03-17T03:57:51;6.80;99.90
4175;DHT22;2101;48.290;14.382;2024-03-17T04:00:20;6.70;99.90
4175;DHT22;2101;48.290;14.382;2024-03-17T04:02:50;6.80;99.90
4175;DHT22;2101;48.290;14.382;2024-03-17T04:05:20;6.70;99.90
4175;DHT22;2101;48.290;14.382;2024-03-17T04:07:47;6.70;99.90
4175;DHT22;2101;48.290;14.382;2024-03-17T04:10:14;6.60;99.90
4175;DHT22;2101;48.290;14.382;2024-03-17T04:12:41;6.60;99.90
4175;DHT22;2101;48.290;14.382;2024-03-17T04:15:08;6.70;99.90
4175;DHT22;2101;48.290;14.382;2024-03-17T04:17:36;6.70;99.90
4175;DHT22;2101;48.290;14.382;2024-03-17T04:20:06;6.70;99.90
4175;DHT22;2101;48.290;14.382;2024-03-17T04:22:34;6.70;99.90
4175;DHT22;2101;48.290;14.382;2024-03-17T04:25:00;6.80;99.90
4175;DHT22;2101;48.290;14.382;2024-03-17T04:27:26;6.70;99.90
4175;DHT22;2101;48.290;14.382;2024-03-17T04:29:54;6.70;99.90
4175;DHT22;2101;48.290;14.382;2024-03-17T04:32:20;6.70;99.90
4175;DHT22;2101;48.290;14.382;2024-03-17T04:34:46;6.70;99.90
4175;DHT22;2101;48.290;14.382;2024-03-17T04:37:15;6.70;99.90
4175;DHT22;2101;48.290;14.382;2024-03-17T04:39:43;6.70;99.90
4175;DHT22;2101;48.290;14.382;2024-03-17T04:42:09;6.70;99.90
4175;DHT22;2101;48.290;14.382;2024-03-17T04:44:35;6.70;99.90
4175;DHT22;2101;48.290;14.382;2024-03-17T04:47:01;6.60;99.90
4175;DHT22;2101;48.290;14.382;2024-03-17T04:49:39;6.60;99.90
4175;DHT22;2101;48.290;14.382;2024-03-17T04:52:05;6.60;99.90
4175;DHT22;2101;48.290;14.382;2024-03-17T04:54:32;6.60;99.90
4175;DHT22;2101;48.290;14.382;2024-03-17T04:56:58;6.50;99.90
4175;DHT22;2101;48.290;14.382;2024-03-17T04:59:24;6.50;99.90
4175;DHT22;2101;48.290;14.382;2024-03-17T05:01:50;6.50;99.90
4175;DHT22;2101;48.290;14.382;2024-03-17T05:04:17;6.50;99.90
4175;DHT22;2101;48.290;14.382;2024-03-17T05:06:43;6.50;99.90
4175;DHT22;2101;48.290;14.382;2024-03-17T05:09:15;6.50;99.90
4175;DHT22;2101;48.290;14.382;2024-03-17T05:11:41;6.50;99.90
4175;DHT22;2101;48.290;14.382;2024-03-17T05:14:07;6.60;99.90
4175;DHT22;2101;48.290;14.382;2024-03-17T05:16:33;6.50;99.90
4175;DHT22;2101;48.290;14.382;2024-03-17T05:18:59;6.60;99.90
4175;DHT22;2101;48.290;14.382;2024-03-17T05:21:25;6.50;99.90
4175;DHT22;2101;48.290;14.382;2024-03-17T05:23:52;6.50;99.90
4175;DHT22;2101;48.290;14.382;2024-03-17T05:26:18;6.50;99.90
4175;DHT22;2101;48.290;14.382;2024-03-17T05:28:44;6.50;99.90
4175;DHT22;2101;48.290;14.382;2024-03-17T05:31:10;6.40;99.90
4175;DHT22;2101;48.290;14.382;2024-03-17T05:33:39;6.50;99.90
4175;DHT22;2101;48.290;14.382;2024-03-17T05:36:05;6.50;99.90
4175;DHT22;2101;48.290;14.382;2024-03-17T05:38:32;6.50;99.90
4175;DHT22;2101;48.290;14.382;2024-03-17T05:41:05;6.50;99.90
4175;DHT22;2101;48.290;14.382;2024-03-17T05:43:33;6.60;99.90
4175;DHT22;2101;48.290;14.382;2024-03-17T05:46:00;6.60;99.90
4175;DHT22;2101;48.290;14.382;2024-03-17T05:48:29;6.60;99.90
4175;DHT22;2101;48.290;14.382;2024-03-17T05:50:55;6.60;99.90
4175;DHT22;2101;48.290;14.382;2024-03-17T05:53:22;6.70;99.90
4175;DHT22;2101;48.290;14.382;2024-03-17T05:55:50;6.70;99.90
4175;DHT22;2101;48.290;14.382;2024-03-17T05:58:16;6.70;99.90
4175;DHT22;2101;48.290;14.382;2024-03-17T06:00:42;6.80;99.90
4175;DHT22;2101;48.290;14.382;2024-03-17T06:03:11;6.80;99.90
4175;DHT22;2101;48.290;14.382;2024-03-17T06:05:39;6.90;99.90
4175;DHT22;2101;48.290;14.382;2024-03-17T06:08:08;6.90;99.90
4175;DHT22;2101;48.290;14.382;2024-03-17T06:10:36;7.00;99.90
4175;DHT22;2101;48.290;14.382;2024-03-17T06:13:05;7.00;99.90
4175;DHT22;2101;48.290;14.382;2024-03-17T06:15:30;7.10;99.90
4175;DHT22;2101;48.290;14.382;2024-03-17T06:17:56;7.10;99.90
4175;DHT22;2101;48.290;14.382;2024-03-17T06:20:25;7.10;99.90
4175;DHT22;2101;48.290;14.382;2024-03-17T06:22:55;7.20;99.90
4175;DHT22;2101;48.290;14.382;2024-03-17T06:25:21;7.30;99.90
4175;DHT22;2101;48.290;14.382;2024-03-17T06:27:50;7.30;99.90
4175;DHT22;2101;48.290;14.382;2024-03-17T06:30:17;7.40;99.90
4175;DHT22;2101;48.290;14.382;2024-03-17T06:32:44;7.50;99.90
4175;DHT22;2101;48.290;14.382;2024-03-17T06:35:14;7.60;99.90
4175;DHT22;2101;48.290;14.382;2024-03-17T06:37:46;7.60;99.90
4175;DHT22;2101;48.290;14.382;2024-03-17T06:40:14;7.60;99.90
4175;DHT22;2101;48.290;14.382;2024-03-17T06:42:41;7.60;99.90
4175;DHT22;2101;48.290;14.382;2024-03-17T06:45:07;7.40;99.90
4175;DHT22;2101;48.290;14.382;2024-03-17T06:47:36;7.50;99.90
4175;DHT22;2101;48.290;14.382;2024-03-17T06:50:03;7.70;99.90
4175;DHT22;2101;48.290;14.382;2024-03-17T06:52:29;7.80;99.90
4175;DHT22;2101;48.290;14.382;2024-03-17T06:54:56;7.90;99.90
4175;DHT22;2101;48.290;14.382;2024-03-17T06:57:24;8.00;99.90
4175;DHT22;2101;48.290;14.382;2024-03-17T06:59:49;8.00;99.90
4175;DHT22;2101;48.290;14.382;2024-03-17T07:02:16;8.00;99.90
4175;DHT22;2101;48.290;14.382;2024-03-17T07:04:43;8.00;99.90
4175;DHT22;2101;48.290;14.382;2024-03-17T07:07:09;8.20;99.90
4175;DHT22;2101;48.290;14.382;2024-03-17T07:09:35;8.30;99.90
4175;DHT22;2101;48.290;14.382;2024-03-17T07:12:01;8.50;99.90
4175;DHT22;2101;48.290;14.382;2024-03-17T07:14:27;8.90;99.90
4175;DHT22;2101;48.290;14.382;2024-03-17T07:16:53;8.90;99.90
4175;DHT22;2101;48.290;14.382;2024-03-17T07:19:19;8.70;99.90
4175;DHT22;2101;48.290;14.382;2024-03-17T07:21:45;8.70;99.90
4175;DHT22;2101;48.290;14.382;2024-03-17T07:24:12;8.60;99.90
4175;DHT22;2101;48.290;14.382;2024-03-17T07:26:38;8.70;99.90
4175;DHT22;2101;48.290;14.382;2024-03-17T07:29:03;8.80;99.90
4175;DHT22;2101;48.290;14.382;2024-03-17T07:31:29;9.00;99.90
4175;DHT22;2101;48.290;14.382;2024-03-17T07:33:55;9.00;99.90
4175;DHT22;2101;48.290;14.382;2024-03-17T07:36:21;9.60;99.90
4175;DHT22;2101;48.290;14.382;2024-03-17T07:38:47;9.90;99.90
4175;DHT22;2101;48.290;14.382;2024-03-17T07:41:13;9.90;99.90
4175;DHT22;2101;48.290;14.382;2024-03-17T07:43:39;9.60;99.90
4175;DHT22;2101;48.290;14.382;2024-03-17T07:46:06;9.70;99.90
4175;DHT22;2101;48.290;14.382;2024-03-17T07:48:34;9.30;99.90
4175;DHT22;2101;48.290;14.382;2024-03-17T07:53:33;9.50;99.90
4175;DHT22;2101;48.290;14.382;2024-03-17T07:56:02;9.60;99.90
4175;DHT22;2101;48.290;14.382;2024-03-17T07:58:32;9.70;99.90
4175;DHT22;2101;48.290;14.382;2024-03-17T08:01:03;9.30;99.90
4175;DHT22;2101;48.290;14.382;2024-03-17T08:03:30;9.20;99.90
4175;DHT22;2101;48.290;14.382;2024-03-17T08:05:57;9.20;99.90
4175;DHT22;2101;48.290;14.382;2024-03-17T08:08:23;9.20;99.90
4175;DHT22;2101;48.290;14.382;2024-03-17T08:10:49;9.30;99.90
4175;DHT22;2101;48.290;14.382;2024-03-17T08:13:17;9.30;99.90
4175;DHT22;2101;48.290;14.382;2024-03-17T08:15:54;9.30;99.90
4175;DHT22;2101;48.290;14.382;2024-03-17T08:18:23;9.20;99.90
4175;DHT22;2101;48.290;14.382;2024-03-17T08:21:12;9.30;99.90
4175;DHT22;2101;48.290;14.382;2024-03-17T08:23:40;9.40;99.90
4175;DHT22;2101;48.290;14.382;2024-03-17T08:26:11;9.70;99.90
4175;DHT22;2101;48.290;14.382;2024-03-17T08:28:37;9.50;99.90
4175;DHT22;2101;48.290;14.382;2024-03-17T08:31:03;9.80;99.90
4175;DHT22;2101;48.290;14.382;2024-03-17T08:33:30;9.70;99.90
4175;DHT22;2101;48.290;14.382;2024-03-17T08:36:16;10.00;99.90
4175;DHT22;2101;48.290;14.382;2024-03-17T08:38:43;10.00;99.90
4175;DHT22;2101;48.290;14.382;2024-03-17T08:41:09;9.60;99.90
4175;DHT22;2101;48.290;14.382;2024-03-17T08:43:36;9.70;99.90
4175;DHT22;2101;48.290;14.382;2024-03-17T08:46:04;9.70;99.90
4175;DHT22;2101;48.290;14.382;2024-03-17T08:48:32;9.70;99.90
4175;DHT22;2101;48.290;14.382;2024-03-17T08:50:59;10.00;99.90
4175;DHT22;2101;48.290;14.382;2024-03-17T08:53:25;9.90;99.90
4175;DHT22;2101;48.290;14.382;2024-03-17T08:55:52;9.90;99.90
4175;DHT22;2101;48.290;14.382;2024-03-17T08:58:19;10.10;99.90
4175;DHT22;2101;48.290;14.382;2024-03-17T09:00:45;10.30;99.90
4175;DHT22;2101;48.290;14.382;2024-03-17T09:03:11;10.30;99.90
4175;DHT22;2101;48.290;14.382;2024-03-17T09:05:39;10.10;99.90
4175;DHT22;2101;48.290;14.382;2024-03-17T09:08:06;10.00;99.90
4175;DHT22;2101;48.290;14.382;2024-03-17T09:10:39;10.20;99.90
4175;DHT22;2101;48.290;14.382;2024-03-17T09:13:05;10.20;99.90
4175;DHT22;2101;48.290;14.382;2024-03-17T09:15:31;10.20;99.90
4175;DHT22;2101;48.290;14.382;2024-03-17T09:17:57;10.40;99.90
4175;DHT22;2101;48.290;14.382;2024-03-17T09:20:22;10.70;99.90
4175;DHT22;2101;48.290;14.382;2024-03-17T09:22:48;10.70;99.90
4175;DHT22;2101;48.290;14.382;2024-03-17T09:25:14;10.70;99.90
4175;DHT22;2101;48.290;14.382;2024-03-17T09:30:15;10.80;99.90
4175;DHT22;2101;48.290;14.382;2024-03-17T09:32:45;11.00;99.90
4175;DHT22;2101;48.290;14.382;2024-03-17T09:35:10;11.20;99.90
4175;DHT22;2101;48.290;14.382;2024-03-17T09:37:36;11.00;99.90
4175;DHT22;2101;48.290;14.382;2024-03-17T09:40:03;10.90;99.90
4175;DHT22;2101;48.290;14.382;2024-03-17T09:42:31;10.80;99.90
4175;DHT22;2101;48.290;14.382;2024-03-17T09:44:58;11.10;99.90
4175;DHT22;2101;48.290;14.382;2024-03-17T09:47:24;11.40;99.90
4175;DHT22;2101;48.290;14.382;2024-03-17T09:49:52;11.30;99.90
4175;DHT22;2101;48.290;14.382;2024-03-17T09:52:22;11.20;99.90
4175;DHT22;2101;48.290;14.382;2024-03-17T09:55:06;10.90;99.90
4175;DHT22;2101;48.290;14.382;2024-03-17T09:57:36;10.70;99.90
4175;DHT22;2101;48.290;14.382;2024-03-17T10:00:14;10.90;99.90
4175;DHT22;2101;48.290;14.382;2024-03-17T10:02:44;11.00;99.90
4175;DHT22;2101;48.290;14.382;2024-03-17T10:05:24;11.20;99.90
4175;DHT22;2101;48.290;14.382;2024-03-17T10:07:50;11.30;99.90
4175;DHT22;2101;48.290;14.382;2024-03-17T10:10:18;11.70;99.90
4175;DHT22;2101;48.290;14.382;2024-03-17T10:12:49;12.00;99.90
4175;DHT22;2101;48.290;14.382;2024-03-17T10:15:19;11.90;99.90
4175;DHT22;2101;48.290;14.382;2024-03-17T10:17:49;12.00;99.90
4175;DHT22;2101;48.290;14.382;2024-03-17T10:20:17;12.40;99.90
4175;DHT22;2101;48.290;14.382;2024-03-17T10:23:12;12.80;99.90
4175;DHT22;2101;48.290;14.382;2024-03-17T10:25:40;12.90;99.90
4175;DHT22;2101;48.290;14.382;2024-03-17T10:28:13;13.00;99.90
4175;DHT22;2101;48.290;14.382;2024-03-17T10:30:40;13.40;99.90
4175;DHT22;2101;48.290;14.382;2024-03-17T10:33:06;13.30;99.90
4175;DHT22;2101;48.290;14.382;2024-03-17T10:35:38;13.30;99.90
4175;DHT22;2101;48.290;14.382;2024-03-17T10:38:05;12.80;99.90
4175;DHT22;2101;48.290;14.382;2024-03-17T10:40:35;13.40;99.90
4175;DHT22;2101;48.290;14.382;2024-03-17T10:43:06;13.10;99.90
4175;DHT22;2101;48.290;14.382;2024-03-17T10:45:34;12.60;99.90
4175;DHT22;2101;48.290;14.382;2024-03-17T10:48:08;12.40;99.90
4175;DHT22;2101;48.290;14.382;2024-03-17T10:50:38;12.50;99.90
4175;DHT22;2101;48.290;14.382;2024-03-17T10:53:06;12.40;99.90
4175;DHT22;2101;48.290;14.382;2024-03-17T10:55:45;12.10;99.90
4175;DHT22;2101;48.290;14.382;2024-03-17T10:58:27;12.20;99.90
4175;DHT22;2101;48.290;14.382;2024-03-17T11:00:56;12.10;99.90
4175;DHT22;2101;48.290;14.382;2024-03-17T11:03:23;11.90;99.90
4175;DHT22;2101;48.290;14.382;2024-03-17T11:05:51;12.10;99.90
4175;DHT22;2101;48.290;14.382;2024-03-17T11:08:38;12.40;99.90
4175;DHT22;2101;48.290;14.382;2024-03-17T11:11:04;12.40;99.90
4175;DHT22;2101;48.290;14.382;2024-03-17T11:13:32;11.80;99.90
4175;DHT22;2101;48.290;14.382;2024-03-17T11:15:59;12.00;99.90
4175;DHT22;2101;48.290;14.382;2024-03-17T11:18:33;12.00;99.90
4175;DHT22;2101;48.290;14.382;2024-03-17T11:21:21;11.80;99.90
4175;DHT22;2101;48.290;14.382;2024-03-17T11:23:58;12.30;99.90
4175;DHT22;2101;48.290;14.382;2024-03-17T11:26:29;12.70;99.90
4175;DHT22;2101;48.290;14.382;2024-03-17T11:28:55;12.50;99.90
4175;DHT22;2101;48.290;14.382;2024-03-17T11:31:34;12.60;99.90
4175;DHT22;2101;48.290;14.382;2024-03-17T11:34:04;13.00;99.90
4175;DHT22;2101;48.290;14.382;2024-03-17T11:36:36;12.80;99.90
4175;DHT22;2101;48.290;14.382;2024-03-17T11:39:06;12.60;99.90
4175;DHT22;2101;48.290;14.382;2024-03-17T11:41:44;12.80;99.90
4175;DHT22;2101;48.290;14.382;2024-03-17T11:54:42;12.70;99.90
4175;DHT22;2101;48.290;14.382;2024-03-17T11:57:12;12.60;99.90
4175;DHT22;2101;48.290;14.382;2024-03-17T11:59:39;12.70;99.90
4175;DHT22;2101;48.290;14.382;2024-03-17T12:02:20;12.80;99.90
4175;DHT22;2101;48.290;14.382;2024-03-17T12:04:48;12.70;99.90
4175;DHT22;2101;48.290;14.382;2024-03-17T12:07:15;12.50;99.90
4175;DHT22;2101;48.290;14.382;2024-03-17T12:09:43;12.40;99.90
4175;DHT22;2101;48.290;14.382;2024-03-17T12:12:10;12.50;99.90
4175;DHT22;2101;48.290;14.382;2024-03-17T12:14:37;12.50;99.90
4175;DHT22;2101;48.290;14.382;2024-03-17T12:17:04;12.60;99.90
4175;DHT22;2101;48.290;14.382;2024-03-17T12:19:30;12.30;99.90
4175;DHT22;2101;48.290;14.382;2024-03-17T12:21:58;12.20;99.90
4175;DHT22;2101;48.290;14.382;2024-03-17T12:24:30;12.40;99.90
4175;DHT22;2101;48.290;14.382;2024-03-17T12:26:57;12.70;99.90
4175;DHT22;2101;48.290;14.382;2024-03-17T12:29:38;12.60;99.90
4175;DHT22;2101;48.290;14.382;2024-03-17T12:34:39;12.00;99.90
4175;DHT22;2101;48.290;14.382;2024-03-17T12:37:05;12.10;99.90
4175;DHT22;2101;48.290;14.382;2024-03-17T12:39:33;12.40;99.90
4175;DHT22;2101;48.290;14.382;2024-03-17T12:42:03;12.40;99.90
4175;DHT22;2101;48.290;14.382;2024-03-17T12:44:33;12.80;99.90
4175;DHT22;2101;48.290;14.382;2024-03-17T12:47:00;12.70;99.90
4175;DHT22;2101;48.290;14.382;2024-03-17T12:49:31;12.60;99.90
4175;DHT22;2101;48.290;14.382;2024-03-17T12:51:57;12.90;99.90
4175;DHT22;2101;48.290;14.382;2024-03-17T12:54:27;12.70;99.90
4175;DHT22;2101;48.290;14.382;2024-03-17T12:57:23;12.90;99.90
4175;DHT22;2101;48.290;14.382;2024-03-17T13:00:17;13.00;99.90
4175;DHT22;2101;48.290;14.382;2024-03-17T13:03:02;13.30;99.90
4175;DHT22;2101;48.290;14.382;2024-03-17T13:05:35;13.20;99.90
4175;DHT22;2101;48.290;14.382;2024-03-17T13:08:01;12.90;99.90
4175;DHT22;2101;48.290;14.382;2024-03-17T13:10:29;13.10;99.90
4175;DHT22;2101;48.290;14.382;2024-03-17T13:13:08;13.20;99.90
4175;DHT22;2101;48.290;14.382;2024-03-17T13:15:35;13.30;99.90
4175;DHT22;2101;48.290;14.382;2024-03-17T13:18:02;13.20;99.90
4175;DHT22;2101;48.290;14.382;2024-03-17T13:20:30;13.00;99.90
4175;DHT22;2101;48.290;14.382;2024-03-17T13:22:56;12.50;99.90
4175;DHT22;2101;48.290;14.382;2024-03-17T13:25:24;12.50;99.90
4175;DHT22;2101;48.290;14.382;2024-03-17T13:27:52;12.60;99.90
4175;DHT22;2101;48.290;14.382;2024-03-17T13:30:19;12.60;99.90
4175;DHT22;2101;48.290;14.382;2024-03-17T13:32:48;12.60;99.90
4175;DHT22;2101;48.290;14.382;2024-03-17T13:35:17;12.40;99.90
4175;DHT22;2101;48.290;14.382;2024-03-17T13:37:48;12.70;99.90
4175;DHT22;2101;48.290;14.382;2024-03-17T13:40:15;13.00;99.90
4175;DHT22;2101;48.290;14.382;2024-03-17T13:42:50;12.90;99.90
4175;DHT22;2101;48.290;14.382;2024-03-17T13:45:17;13.00;99.90
4175;DHT22;2101;48.290;14.382;2024-03-17T13:47:48;12.90;99.90
4175;DHT22;2101;48.290;14.382;2024-03-17T13:50:15;13.10;99.90
4175;DHT22;2101;48.290;14.382;2024-03-17T13:52:41;13.30;99.90
4175;DHT22;2101;48.290;14.382;2024-03-17T13:55:18;13.50;99.90
4175;DHT22;2101;48.290;14.382;2024-03-17T13:57:47;13.70;99.90
4175;DHT22;2101;48.290;14.382;2024-03-17T14:00:14;13.90;99.90
4175;DHT22;2101;48.290;14.382;2024-03-17T14:02:46;13.90;99.40
4175;DHT22;2101;48.290;14.382;2024-03-17T14:05:16;13.90;99.10
4175;DHT22;2101;48.290;14.382;2024-03-17T14:07:42;13.90;97.70
4175;DHT22;2101;48.290;14.382;2024-03-17T14:10:10;13.80;97.20
4175;DHT22;2101;48.290;14.382;2024-03-17T14:12:37;13.90;98.10
4175;DHT22;2101;48.290;14.382;2024-03-17T14:15:07;13.80;97.00
4175;DHT22;2101;48.290;14.382;2024-03-17T14:17:40;13.70;97.50
4175;DHT22;2101;48.290;14.382;2024-03-17T14:20:07;13.40;97.40
4175;DHT22;2101;48.290;14.382;2024-03-17T14:22:39;13.40;98.20
4175;DHT22;2101;48.290;14.382;2024-03-17T14:25:08;13.60;98.80
4175;DHT22;2101;48.290;14.382;2024-03-17T14:27:36;13.50;98.10
4175;DHT22;2101;48.290;14.382;2024-03-17T14:30:02;13.60;98.50
4175;DHT22;2101;48.290;14.382;2024-03-17T14:32:29;13.50;98.40
4175;DHT22;2101;48.290;14.382;2024-03-17T14:34:55;13.50;98.80
4175;DHT22;2101;48.290;14.382;2024-03-17T14:37:21;13.40;97.30
4175;DHT22;2101;48.290;14.382;2024-03-17T14:39:53;13.30;97.40
4175;DHT22;2101;48.290;14.382;2024-03-17T14:42:20;13.10;97.40
4175;DHT22;2101;48.290;14.382;2024-03-17T14:44:46;13.30;98.40
4175;DHT22;2101;48.290;14.382;2024-03-17T14:47:15;13.30;97.80
4175;DHT22;2101;48.290;14.382;2024-03-17T14:49:41;13.50;98.70
4175;DHT22;2101;48.290;14.382;2024-03-17T14:52:08;13.80;99.00
4175;DHT22;2101;48.290;14.382;2024-03-17T14:54:36;13.90;99.20
4175;DHT22;2101;48.290;14.382;2024-03-17T14:57:03;13.70;97.70
4175;DHT22;2101;48.290;14.382;2024-03-17T14:59:29;13.60;96.90
4175;DHT22;2101;48.290;14.382;2024-03-17T15:01:56;13.60;96.00
4175;DHT22;2101;48.290;14.382;2024-03-17T15:04:23;13.80;97.00
4175;DHT22;2101;48.290;14.382;2024-03-17T15:06:52;13.60;95.90
4175;DHT22;2101;48.290;14.382;2024-03-17T15:09:19;13.60;96.30
4175;DHT22;2101;48.290;14.382;2024-03-17T15:11:47;13.60;96.80
4175;DHT22;2101;48.290;14.382;2024-03-17T15:14:13;13.40;97.30
4175;DHT22;2101;48.290;14.382;2024-03-17T15:16:39;13.40;98.00
4175;DHT22;2101;48.290;14.382;2024-03-17T15:19:05;13.20;97.20
4175;DHT22;2101;48.290;14.382;2024-03-17T15:21:32;13.20;97.10
4175;DHT22;2101;48.290;14.382;2024-03-17T15:23:58;13.10;97.00
4175;DHT22;2101;48.290;14.382;2024-03-17T15:26:24;13.10;97.60
4175;DHT22;2101;48.290;14.382;2024-03-17T15:28:49;13.20;97.90
4175;DHT22;2101;48.290;14.382;2024-03-17T15:31:16;13.10;96.70
4175;DHT22;2101;48.290;14.382;2024-03-17T15:33:43;13.30;98.50
4175;DHT22;2101;48.290;14.382;2024-03-17T15:36:09;13.30;97.00
4175;DHT22;2101;48.290;14.382;2024-03-17T15:38:36;13.20;96.40
4175;DHT22;2101;48.290;14.382;2024-03-17T15:41:06;13.30;96.60
4175;DHT22;2101;48.290;14.382;2024-03-17T15:43:38;13.20;96.40
4175;DHT22;2101;48.290;14.382;2024-03-17T15:46:20;13.20;97.40
4175;DHT22;2101;48.290;14.382;2024-03-17T15:48:48;13.10;96.70
4175;DHT22;2101;48.290;14.382;2024-03-17T15:51:14;13.10;97.50
4175;DHT22;2101;48.290;14.382;2024-03-17T15:53:43;12.90;97.00
4175;DHT22;2101;48.290;14.382;2024-03-17T15:56:09;12.80;97.60
4175;DHT22;2101;48.290;14.382;2024-03-17T15:58:36;12.80;97.80
4175;DHT22;2101;48.290;14.382;2024-03-17T16:01:06;12.60;96.60
4175;DHT22;2101;48.290;14.382;2024-03-17T16:03:37;12.50;97.20
4175;DHT22;2101;48.290;14.382;2024-03-17T16:06:13;12.60;97.80
4175;DHT22;2101;48.290;14.382;2024-03-17T16:08:41;12.60;97.60
4175;DHT22;2101;48.290;14.382;2024-03-17T16:11:11;12.40;96.90
4175;DHT22;2101;48.290;14.382;2024-03-17T16:13:43;12.40;97.10
4175;DHT22;2101;48.290;14.382;2024-03-17T16:16:15;12.30;96.70
4175;DHT22;2101;48.290;14.382;2024-03-17T16:18:41;12.20;97.30
4175;DHT22;2101;48.290;14.382;2024-03-17T16:21:15;12.10;97.40